Time;durP1;ratioP1;P1;durP2;ratioP2;P2;SDS_P1;SDS_P2;PMS_P1;PMS_P2;Temp;Humidity;BMP_temperature;BMP_pressure;BME280_temperature;BME280_humidity;BME280_pressure;Samples;Min_cycle;Max_cycle;Signal;HPM_P1;HPM_P2
2023/01/05 00:01:04;;;;;;;28.73;5.15;;;9.90;99.90;;;;;;4954021;28;20054;-77
2023/01/05 00:03:31;;;;;;;22.20;4.78;;;10.00;99.90;;;;;;4969724;28;20039;-80
2023/01/05 00:06:01;;;;;;;30.35;5.13;;;9.90;99.90;;;;;;4952344;28;20518;-78
2023/01/05 00:08:27;;;;;;;27.23;5.32;;;9.80;99.90;;;;;;4948426;28;20125;-76
2023/01/05 00:24:38;;;;;;;28.98;5.28;;;10.00;99.90;;;;;;4939686;28;20051;-77
2023/01/05 00:27:03;;;;;;;27.70;4.85;;;9.90;99.90;;;;;;4950637;28;20038;-76
2023/01/05 00:29:29;;;;;;;25.05;4.82;;;9.90;99.90;;;;;;4937148;28;20081;-79
2023/01/05 00:31:55;;;;;;;24.95;4.70;;;9.90;99.90;;;;;;4937251;28;20095;-72
2023/01/05 00:34:20;;;;;;;26.95;5.25;;;9.80;99.90;;;;;;4937875;28;20159;-81
2023/01/05 00:36:46;;;;;;;28.13;4.70;;;9.90;99.90;;;;;;4953972;28;20045;-76
2023/01/05 00:39:12;;;;;;;28.75;5.53;;;9.90;99.90;;;;;;4951316;28;20540;-77
2023/01/05 00:41:37;;;;;;;27.95;5.03;;;9.90;99.90;;;;;;4950742;28;20114;-76
2023/01/05 00:44:03;;;;;;;28.35;5.07;;;9.90;99.90;;;;;;4935875;28;20105;-76
2023/01/05 00:46:29;;;;;;;27.95;5.07;;;9.90;99.90;;;;;;4952206;28;20054;-79
2023/01/05 00:48:55;;;;;;;27.10;5.22;;;9.90;99.90;;;;;;4953478;28;20101;-77
2023/01/05 00:51:20;;;;;;;25.90;4.90;;;9.90;99.90;;;;;;4949033;28;20051;-83
2023/01/05 00:53:47;;;;;;;25.88;4.88;;;9.90;99.90;;;;;;4950619;28;20066;-82
2023/01/05 00:56:13;;;;;;;30.92;5.20;;;9.90;99.90;;;;;;4950960;28;20039;-82
2023/01/05 00:58:39;;;;;;;26.52;4.72;;;9.90;99.90;;;;;;4935553;28;20522;-80
2023/01/05 01:01:12;;;;;;;25.60;5.00;;;9.90;99.90;;;;;;4969446;28;20090;-81
2023/01/05 01:03:38;;;;;;;25.65;4.68;;;9.90;99.90;;;;;;4938221;28;20056;-75
2023/01/05 01:06:04;;;;;;;25.77;4.72;;;9.90;99.90;;;;;;4952427;28;20134;-77
2023/01/05 01:08:29;;;;;;;27.65;4.90;;;9.90;99.90;;;;;;4948447;28;20064;-75
2023/01/05 01:10:55;;;;;;;26.85;4.80;;;10.00;99.90;;;;;;4952569;28;20078;-73
2023/01/05 01:13:23;;;;;;;25.95;4.43;;;10.00;99.90;;;;;;4950318;28;20039;-78
2023/01/05 01:15:49;;;;;;;27.98;4.63;;;10.00;99.90;;;;;;4952994;28;20454;-80
2023/01/05 01:18:15;;;;;;;23.13;4.57;;;10.00;99.90;;;;;;4952662;28;20086;-76
2023/01/05 01:20:40;;;;;;;28.45;4.70;;;10.00;99.90;;;;;;4950781;28;20035;-76
2023/01/05 01:23:06;;;;;;;22.65;4.22;;;10.00;99.90;;;;;;4917858;28;20050;-75
2023/01/05 01:25:32;;;;;;;19.88;3.97;;;10.00;99.90;;;;;;4952124;28;20086;-78
2023/01/05 01:27:57;;;;;;;25.58;4.20;;;10.00;99.90;;;;;;4935884;28;20279;-74
2023/01/05 01:30:23;;;;;;;22.98;4.65;;;10.00;99.90;;;;;;4969348;28;20047;-75
2023/01/05 01:32:49;;;;;;;24.48;4.38;;;10.00;99.90;;;;;;4951538;28;20077;-76
2023/01/05 01:35:15;;;;;;;22.05;4.20;;;10.10;99.90;;;;;;4953456;28;20047;-75
2023/01/05 01:37:41;;;;;;;22.27;4.38;;;10.00;99.90;;;;;;4947901;28;20125;-75
2023/01/05 01:40:07;;;;;;;27.20;5.10;;;10.00;99.90;;;;;;4936210;28;20380;-75
2023/01/05 01:42:33;;;;;;;23.27;4.10;;;10.00;99.90;;;;;;4933273;28;20059;-75
2023/01/05 01:45:04;;;;;;;25.80;4.57;;;10.00;99.90;;;;;;4937124;28;20065;-75
2023/01/05 01:47:42;;;;;;;26.65;4.80;;;10.00;99.90;;;;;;4932441;28;20062;-77
2023/01/05 01:50:26;;;;;;;23.85;4.28;;;10.00;99.90;;;;;;4950878;28;20046;-77
2023/01/05 01:52:56;;;;;;;22.05;4.28;;;10.00;99.90;;;;;;4950099;28;20109;-75
2023/01/05 01:55:23;;;;;;;25.27;4.70;;;10.00;99.90;;;;;;4933805;28;20083;-75
2023/01/05 01:57:50;;;;;;;25.80;4.70;;;10.00;99.90;;;;;;4932808;28;20057;-77
2023/01/05 02:00:17;;;;;;;25.50;4.57;;;10.00;99.90;;;;;;4952123;28;20496;-76
2023/01/05 02:02:45;;;;;;;23.80;4.53;;;10.00;99.90;;;;;;4952719;28;20070;-77
2023/01/05 02:05:12;;;;;;;24.90;4.82;;;10.00;99.90;;;;;;4950842;28;20070;-76
2023/01/05 02:07:44;;;;;;;27.55;4.30;;;10.00;99.90;;;;;;4944088;28;20054;-76
2023/01/05 02:10:10;;;;;;;;;;;10.00;99.90;;;;;;4950377;28;20412;-77
2023/01/05 02:13:05;;;;;;;24.90;4.60;;;10.00;99.90;;;;;;4970085;28;19994;-76
2023/01/05 02:16:11;;;;;;;22.83;3.97;;;10.00;99.90;;;;;;4969524;28;20085;-78
2023/01/05 02:19:16;;;;;;;30.17;4.82;;;10.00;99.90;;;;;;4930010;28;20062;-77
2023/01/05 02:22:00;;;;;;;23.35;4.22;;;10.00;99.90;;;;;;4952949;28;20051;-80
2023/01/05 02:24:50;;;;;;;20.70;4.05;;;10.00;99.90;;;;;;4951325;28;20089;-79
2023/01/05 02:27:47;;;;;;;24.55;4.78;;;10.00;99.90;;;;;;4949612;28;20058;-75
2023/01/05 02:30:25;;;;;;;23.85;4.57;;;10.00;99.90;;;;;;4912443;28;20153;-75
2023/01/05 02:33:05;;;;;;;22.52;4.60;;;10.00;99.90;;;;;;4953074;28;20046;-76
2023/01/05 02:35:40;;;;;;;26.55;4.82;;;9.90;99.90;;;;;;4953883;28;20139;-75
2023/01/05 02:38:36;;;;;;;23.58;4.30;;;9.90;99.90;;;;;;4950153;28;20070;-75
2023/01/05 02:41:11;;;;;;;26.15;4.63;;;9.90;99.90;;;;;;4953433;28;20058;-79
2023/01/05 02:43:37;;;;;;;23.15;3.95;;;9.90;99.90;;;;;;4948197;29;20074;-80
2023/01/05 02:46:03;;;;;;;23.45;4.35;;;9.90;99.90;;;;;;4952256;29;20051;-76
2023/01/05 02:48:30;;;;;;;25.40;4.40;;;9.90;99.90;;;;;;4945810;29;20352;-76
2023/01/05 02:51:01;;;;;;;24.58;4.40;;;9.90;99.90;;;;;;4934617;29;20145;-78
2023/01/05 02:53:32;;;;;;;18.45;3.70;;;9.90;99.90;;;;;;4946405;29;20066;-75
2023/01/05 02:56:05;;;;;;;24.40;4.25;;;9.90;99.90;;;;;;4951206;29;20126;-76
2023/01/05 02:58:39;;;;;;;21.10;4.50;;;9.90;99.90;;;;;;4946399;29;20631;-75
2023/01/05 03:01:08;;;;;;;28.13;4.38;;;9.90;99.90;;;;;;4950688;29;20063;-77
2023/01/05 03:03:39;;;;;;;22.55;4.22;;;9.90;99.90;;;;;;4933424;29;20051;-76
2023/01/05 03:06:14;;;;;;;23.43;4.50;;;9.90;99.90;;;;;;4947459;29;20056;-78
2023/01/05 03:08:50;;;;;;;21.67;4.43;;;9.90;99.90;;;;;;4946850;29;20055;-79
2023/01/05 03:14:07;;;;;;;23.40;4.00;;;9.90;99.90;;;;;;4951046;29;20071;-79
2023/01/05 03:16:36;;;;;;;25.38;4.80;;;9.90;99.90;;;;;;4949802;29;20138;-76
2023/01/05 03:35:57;;;;;;;26.63;4.82;;;9.70;99.90;;;;;;4950190;29;20415;-75
2023/01/05 03:38:29;;;;;;;25.00;4.72;;;9.70;99.90;;;;;;4927899;28;20055;-75
2023/01/05 03:41:00;;;;;;;22.27;4.35;;;9.70;99.90;;;;;;4948671;29;20047;-78
2023/01/05 03:43:26;;;;;;;24.10;4.50;;;9.70;99.90;;;;;;4946647;29;20095;-78
2023/01/05 03:45:56;;;;;;;24.40;5.05;;;9.70;99.90;;;;;;4950846;29;20087;-75
2023/01/05 03:48:24;;;;;;;20.70;4.15;;;9.70;99.90;;;;;;4948810;29;20051;-76
2023/01/05 03:50:50;;;;;;;26.02;5.20;;;9.70;99.90;;;;;;4949595;29;20062;-77
2023/01/05 03:53:16;;;;;;;23.92;4.45;;;9.60;99.90;;;;;;4951405;29;20035;-76
2023/01/05 03:55:41;;;;;;;28.48;4.65;;;9.70;99.90;;;;;;4948492;29;20055;-75
2023/01/05 03:58:07;;;;;;;23.50;4.38;;;9.70;99.90;;;;;;4946528;29;20391;-76
2023/01/05 04:00:33;;;;;;;27.73;4.53;;;9.60;99.90;;;;;;4948922;29;20610;-77
2023/01/05 04:02:59;;;;;;;28.13;4.60;;;9.60;99.90;;;;;;4949948;29;20125;-79
2023/01/05 04:05:25;;;;;;;22.60;4.68;;;9.60;99.90;;;;;;4920005;29;20575;-75
2023/01/05 04:07:51;;;;;;;29.58;5.35;;;9.70;99.90;;;;;;4949205;29;20051;-76
2023/01/05 04:10:16;;;;;;;24.63;4.90;;;9.70;99.90;;;;;;4951589;29;20047;-76
2023/01/05 04:12:43;;;;;;;28.50;5.25;;;9.80;99.90;;;;;;4950068;29;20518;-76
2023/01/05 04:15:09;;;;;;;24.42;4.97;;;9.80;99.90;;;;;;4919334;29;20074;-77
2023/01/05 04:17:35;;;;;;;24.58;4.47;;;9.80;99.90;;;;;;4943394;29;20496;-75
2023/01/05 04:20:01;;;;;;;19.25;4.22;;;9.80;99.90;;;;;;4930805;29;20043;-77
2023/01/05 04:22:26;;;;;;;24.55;4.80;;;9.80;99.90;;;;;;4950219;29;20051;-77
2023/01/05 04:24:52;;;;;;;26.38;4.93;;;9.80;99.90;;;;;;4947020;29;21465;-77
2023/01/05 04:27:18;;;;;;;29.65;4.97;;;9.80;99.90;;;;;;4945323;29;20043;-75
2023/01/05 04:29:43;;;;;;;31.33;4.95;;;9.80;99.90;;;;;;4945252;29;20078;-76
2023/01/05 04:32:09;;;;;;;24.60;4.72;;;9.70;99.90;;;;;;4953325;29;20612;-75
2023/01/05 04:34:35;;;;;;;24.00;4.93;;;9.80;99.90;;;;;;4933391;29;20043;-77
2023/01/05 04:37:01;;;;;;;29.15;4.43;;;9.80;99.90;;;;;;4944569;29;20050;-77
2023/01/05 04:39:26;;;;;;;22.85;4.45;;;9.70;99.90;;;;;;4950062;29;20059;-80
2023/01/05 04:41:52;;;;;;;23.10;4.88;;;9.70;99.90;;;;;;4932721;29;20048;-76
2023/01/05 04:44:18;;;;;;;29.33;4.90;;;9.80;99.90;;;;;;4927631;29;20089;-77
2023/01/05 04:46:43;;;;;;;25.35;4.30;;;9.80;99.90;;;;;;4947615;29;20051;-77
2023/01/05 04:49:10;;;;;;;22.88;4.57;;;9.70;99.90;;;;;;4932081;29;20058;-75
2023/01/05 04:51:36;;;;;;;24.52;4.72;;;9.70;99.90;;;;;;4931942;29;20449;-77
2023/01/05 04:54:01;;;;;;;23.58;4.70;;;9.80;99.90;;;;;;4931567;29;20043;-77
2023/01/05 04:56:27;;;;;;;27.10;4.60;;;9.80;99.90;;;;;;4952313;29;20078;-77
2023/01/05 04:58:53;;;;;;;26.20;4.30;;;9.80;99.90;;;;;;4913606;29;20040;-77
2023/01/05 05:01:19;;;;;;;25.75;4.55;;;9.80;99.90;;;;;;4950662;29;20066;-78
2023/01/05 05:03:45;;;;;;;22.50;3.85;;;9.80;99.90;;;;;;4946329;29;20134;-74
2023/01/05 05:06:10;;;;;;;25.63;4.30;;;9.80;99.90;;;;;;4949483;29;20127;-77
2023/01/05 05:08:36;;;;;;;21.42;4.28;;;9.80;99.90;;;;;;4947698;29;20063;-76
2023/01/05 05:11:02;;;;;;;19.73;3.38;;;9.90;99.90;;;;;;4950658;29;20388;-75
2023/01/05 05:13:28;;;;;;;23.77;4.30;;;9.80;99.90;;;;;;4949115;29;20088;-77
2023/01/05 05:15:53;;;;;;;22.65;4.28;;;9.80;99.90;;;;;;4950067;29;20058;-77
2023/01/05 05:18:21;;;;;;;26.38;4.63;;;9.80;99.90;;;;;;4948059;29;20087;-77
2023/01/05 05:20:48;;;;;;;20.33;3.88;;;9.90;99.90;;;;;;4951358;29;20054;-75
2023/01/05 05:23:14;;;;;;;21.48;4.18;;;9.80;99.90;;;;;;4948138;29;20051;-76
2023/01/05 05:25:39;;;;;;;25.50;4.22;;;9.80;99.90;;;;;;4948016;29;20087;-75
2023/01/05 05:28:05;;;;;;;24.02;4.05;;;9.80;99.90;;;;;;4948638;29;20055;-75
2023/01/05 05:30:31;;;;;;;21.92;4.20;;;9.80;99.90;;;;;;4947936;29;20420;-76
2023/01/05 05:32:57;;;;;;;27.60;4.53;;;9.80;99.90;;;;;;4948754;29;20070;-76
2023/01/05 05:35:22;;;;;;;19.58;4.32;;;9.80;99.90;;;;;;4950225;29;20055;-75
2023/01/05 05:37:48;;;;;;;21.17;3.97;;;9.80;99.90;;;;;;4948874;29;20106;-76
2023/01/05 05:40:14;;;;;;;26.40;4.70;;;9.80;99.90;;;;;;4944277;29;20047;-77
2023/01/05 05:42:39;;;;;;;21.23;4.40;;;9.90;99.90;;;;;;4943717;29;20051;-76
2023/01/05 05:45:06;;;;;;;24.52;4.28;;;9.90;99.90;;;;;;4947604;29;20110;-79
2023/01/05 05:47:31;;;;;;;27.63;4.65;;;9.90;99.90;;;;;;4930907;29;20057;-77
2023/01/05 05:49:57;;;;;;;20.92;4.28;;;9.90;99.90;;;;;;4929797;29;20051;-77
2023/01/05 05:52:23;;;;;;;23.25;4.22;;;9.90;99.90;;;;;;4938342;29;20050;-75
2023/01/05 05:54:48;;;;;;;21.98;4.32;;;10.40;99.90;;;;;;4959465;28;20251;-78
2023/01/05 05:57:16;;;;;;;21.70;4.20;;;9.90;99.90;;;;;;4947674;29;20062;-78
2023/01/05 05:59:42;;;;;;;20.98;4.03;;;9.80;99.90;;;;;;4944250;29;20164;-79
2023/01/05 06:02:08;;;;;;;25.13;4.63;;;9.90;99.90;;;;;;4947657;28;20088;-77
2023/01/05 06:04:33;;;;;;;21.70;4.07;;;9.80;99.90;;;;;;4947368;29;20055;-76
2023/01/05 06:06:59;;;;;;;19.67;3.95;;;9.90;99.90;;;;;;4951347;29;20057;-76
2023/01/05 06:09:25;;;;;;;24.10;5.05;;;9.90;99.90;;;;;;4949086;29;20473;-76
2023/01/05 06:11:51;;;;;;;23.23;4.50;;;9.90;99.90;;;;;;4952799;29;20046;-77
2023/01/05 06:14:17;;;;;;;24.42;4.38;;;9.90;99.90;;;;;;4950344;29;20138;-77
2023/01/05 06:16:44;;;;;;;23.23;4.53;;;9.90;99.90;;;;;;4942261;29;20063;-80
2023/01/05 06:19:10;;;;;;;20.17;4.40;;;9.90;99.90;;;;;;4941648;29;20070;-75
2023/01/05 06:21:36;;;;;;;24.25;4.47;;;9.90;99.90;;;;;;4959767;28;20055;-79
2023/01/05 06:24:02;;;;;;;25.48;4.80;;;9.90;99.90;;;;;;4938860;29;20059;-77
2023/01/05 06:26:28;;;;;;;25.20;4.55;;;9.90;99.90;;;;;;4948603;29;20296;-78
2023/01/05 06:28:53;;;;;;;20.92;4.20;;;9.90;99.90;;;;;;4942644;29;20064;-78
2023/01/05 06:31:19;;;;;;;21.88;4.25;;;9.80;99.90;;;;;;4945953;29;20403;-77
2023/01/05 06:33:45;;;;;;;28.67;4.97;;;9.90;99.90;;;;;;4925739;29;20055;-75
2023/01/05 06:36:11;;;;;;;21.55;4.57;;;9.90;99.90;;;;;;4927514;29;20105;-77
2023/01/05 06:38:36;;;;;;;22.23;4.30;;;9.80;99.90;;;;;;4933818;29;20044;-77
2023/01/05 06:41:02;;;;;;;24.20;4.60;;;9.80;99.90;;;;;;4936164;29;20058;-76
2023/01/05 06:43:28;;;;;;;24.33;4.63;;;9.80;99.90;;;;;;4938900;29;20063;-75
2023/01/05 06:45:53;;;;;;;27.63;4.82;;;9.80;99.90;;;;;;4925237;29;20063;-76
2023/01/05 06:48:19;;;;;;;23.10;4.30;;;9.70;99.90;;;;;;4899256;29;20083;-76
2023/01/05 06:50:45;;;;;;;22.13;4.40;;;9.70;99.90;;;;;;4944844;29;20055;-76
2023/01/05 06:53:11;;;;;;;23.70;4.45;;;9.70;99.90;;;;;;4939882;29;20373;-77
2023/01/05 06:55:36;;;;;;;24.02;4.38;;;9.70;99.90;;;;;;4924960;29;20056;-76
2023/01/05 06:58:02;;;;;;;25.27;4.88;;;9.70;99.90;;;;;;4948862;29;20047;-75
2023/01/05 07:00:28;;;;;;;24.92;4.40;;;9.70;99.90;;;;;;4949962;29;20415;-75
2023/01/05 07:02:54;;;;;;;19.85;4.40;;;9.60;99.90;;;;;;4929914;29;20174;-74
2023/01/05 07:05:22;;;;;;;25.70;5.00;;;9.70;99.90;;;;;;4947079;29;20142;-75
2023/01/05 07:07:47;;;;;;;22.98;4.32;;;9.70;99.90;;;;;;4946975;29;20503;-76
2023/01/05 07:10:13;;;;;;;26.77;6.20;;;9.60;99.90;;;;;;4935295;29;20089;-77
2023/01/05 07:12:39;;;;;;;27.73;5.10;;;9.60;99.90;;;;;;4950259;29;20102;-75
2023/01/05 07:15:05;;;;;;;24.15;4.80;;;9.60;99.90;;;;;;4945878;28;20277;-77
2023/01/05 07:17:31;;;;;;;24.77;4.20;;;9.60;99.90;;;;;;4943286;29;20050;-75
2023/01/05 07:19:57;;;;;;;23.83;4.47;;;9.60;99.90;;;;;;4945337;29;20408;-74
2023/01/05 07:22:23;;;;;;;20.20;4.05;;;9.60;99.90;;;;;;4946017;29;20828;-75
2023/01/05 07:24:49;;;;;;;26.38;4.35;;;9.60;99.90;;;;;;4950289;29;20074;-75
2023/01/05 07:27:14;;;;;;;21.58;4.63;;;9.60;99.90;;;;;;4932440;29;20377;-75
2023/01/05 07:29:40;;;;;;;24.50;4.28;;;9.60;99.90;;;;;;4950813;28;20082;-75
2023/01/05 07:32:07;;;;;;;24.33;4.28;;;9.60;99.90;;;;;;4951954;29;20055;-76
2023/01/05 07:34:33;;;;;;;20.88;4.20;;;9.60;99.90;;;;;;4952209;29;20126;-75
2023/01/05 07:36:59;;;;;;;26.52;4.30;;;9.60;99.90;;;;;;4947435;29;20495;-75
2023/01/05 07:39:24;;;;;;;25.45;4.53;;;9.60;99.90;;;;;;4942229;29;20131;-74
2023/01/05 07:41:50;;;;;;;23.48;4.95;;;9.60;99.90;;;;;;4947366;29;20043;-76
2023/01/05 07:44:17;;;;;;;25.08;5.00;;;9.60;99.90;;;;;;4948047;29;20571;-76
2023/01/05 07:46:43;;;;;;;24.30;4.53;;;9.60;99.90;;;;;;4950003;28;20055;-76
2023/01/05 07:49:08;;;;;;;19.67;4.30;;;9.60;99.90;;;;;;4946024;29;20082;-76
2023/01/05 07:51:34;;;;;;;23.17;4.50;;;9.60;99.90;;;;;;4930502;29;20070;-75
2023/01/05 07:54:00;;;;;;;25.42;4.30;;;9.60;99.90;;;;;;4948498;29;20066;-75
2023/01/05 07:56:26;;;;;;;22.90;4.63;;;9.60;99.90;;;;;;4946802;29;20114;-76
2023/01/05 07:58:51;;;;;;;26.45;4.40;;;9.60;99.90;;;;;;4949246;29;20078;-74
2023/01/05 08:01:17;;;;;;;24.20;4.63;;;9.60;99.90;;;;;;4949251;29;20472;-75
2023/01/05 08:03:43;;;;;;;26.38;4.57;;;9.60;99.90;;;;;;4919584;29;20399;-75
2023/01/05 08:06:13;;;;;;;28.20;5.10;;;9.60;99.90;;;;;;4948219;29;20118;-76
2023/01/05 08:08:39;;;;;;;27.17;5.13;;;9.60;99.90;;;;;;4938836;29;20059;-75
2023/01/05 08:11:06;;;;;;;26.90;4.90;;;9.60;99.90;;;;;;4932351;29;20047;-76
2023/01/05 08:16:17;;;;;;;27.17;4.90;;;9.60;99.90;;;;;;4947339;29;20043;-76
2023/01/05 08:18:42;;;;;;;25.85;4.90;;;9.60;99.90;;;;;;4946656;29;20480;-77
2023/01/05 08:21:08;;;;;;;23.65;4.70;;;9.60;99.90;;;;;;4948174;29;20098;-76
2023/01/05 08:23:35;;;;;;;27.08;5.28;;;9.60;99.90;;;;;;4946462;29;20459;-76
2023/01/05 08:26:06;;;;;;;24.75;4.57;;;9.60;99.90;;;;;;4946581;29;20059;-76
2023/01/05 08:28:35;;;;;;;27.20;4.93;;;9.60;99.90;;;;;;4943094;29;20054;-76
2023/01/05 08:31:05;;;;;;;23.55;4.82;;;9.60;99.90;;;;;;4953148;28;20287;-75
2023/01/05 08:33:32;;;;;;;23.85;4.63;;;9.60;99.90;;;;;;4947587;29;20051;-76
2023/01/05 08:35:58;;;;;;;23.77;4.80;;;9.60;99.90;;;;;;4934324;29;20484;-76
2023/01/05 08:38:24;;;;;;;26.15;4.63;;;9.60;99.90;;;;;;4949517;29;20047;-76
2023/01/05 08:40:50;;;;;;;29.95;5.03;;;9.60;99.90;;;;;;4950907;28;20054;-77
2023/01/05 08:43:16;;;;;;;27.05;4.90;;;9.60;99.90;;;;;;4927585;29;20447;-76
2023/01/05 08:45:46;;;;;;;21.15;4.15;;;9.60;99.90;;;;;;4951497;29;20062;-76
2023/01/05 08:48:12;;;;;;;22.55;4.30;;;9.60;99.90;;;;;;4947925;29;20130;-75
2023/01/05 08:50:37;;;;;;;20.50;4.38;;;9.60;99.90;;;;;;4950698;29;20151;-76
2023/01/05 08:53:03;;;;;;;28.25;4.63;;;9.60;99.90;;;;;;4947738;29;20059;-76
2023/01/05 08:55:29;;;;;;;26.63;4.70;;;9.60;99.90;;;;;;4948483;29;20159;-75
2023/01/05 08:57:56;;;;;;;18.40;3.90;;;9.60;99.90;;;;;;4947538;29;20539;-74
2023/01/05 09:00:22;;;;;;;22.42;4.53;;;9.60;99.90;;;;;;4948252;29;20510;-76
2023/01/05 09:02:48;;;;;;;23.88;4.30;;;9.70;99.90;;;;;;4949096;29;20065;-76
2023/01/05 09:05:14;;;;;;;25.65;4.70;;;9.70;99.90;;;;;;4950220;29;20051;-75
2023/01/05 09:07:39;;;;;;;25.65;4.80;;;9.70;99.90;;;;;;4928823;29;20109;-75
2023/01/05 09:10:07;;;;;;;25.00;4.63;;;9.70;99.90;;;;;;4951483;28;20043;-76
2023/01/05 09:12:37;;;;;;;23.92;4.47;;;9.70;99.90;;;;;;4944940;29;20459;-76
2023/01/05 09:15:05;;;;;;;25.13;4.60;;;9.60;99.90;;;;;;4961498;28;20058;-76
2023/01/05 09:17:32;;;;;;;21.67;4.15;;;9.60;99.90;;;;;;4947392;29;20520;-76
2023/01/05 09:19:57;;;;;;;23.60;4.43;;;9.70;99.90;;;;;;4945439;29;20047;-75
2023/01/05 09:22:23;;;;;;;24.75;4.57;;;9.70;99.90;;;;;;4941384;29;20179;-73
2023/01/05 09:24:49;;;;;;;22.70;4.30;;;9.60;99.90;;;;;;4944854;29;20090;-75
2023/01/05 09:27:15;;;;;;;23.90;4.30;;;9.60;99.90;;;;;;4946412;29;20039;-76
2023/01/05 09:29:40;;;;;;;25.63;5.03;;;9.60;99.90;;;;;;4928625;29;20086;-74
2023/01/05 09:32:06;;;;;;;22.27;4.20;;;9.60;99.90;;;;;;4944857;29;20058;-74
2023/01/05 09:34:32;;;;;;;26.98;4.50;;;9.70;99.90;;;;;;4946452;29;20073;-75
2023/01/05 09:36:58;;;;;;;26.08;4.65;;;9.70;99.90;;;;;;4929836;29;20051;-74
2023/01/05 09:39:24;;;;;;;20.45;4.22;;;9.70;99.90;;;;;;4948907;29;20057;-75
2023/01/05 09:41:54;;;;;;;25.77;4.57;;;9.70;99.90;;;;;;4930507;29;20495;-73
2023/01/05 09:44:39;;;;;;;26.30;5.25;;;9.70;99.90;;;;;;4962825;28;20149;-75
2023/01/05 09:47:49;;;;;;;19.85;4.32;;;9.70;99.90;;;;;;4947083;28;20058;-75
2023/01/05 09:50:21;;;;;;;21.92;4.15;;;9.70;99.90;;;;;;4953656;28;20055;-75
2023/01/05 09:52:51;;;;;;;19.63;3.75;;;9.70;99.90;;;;;;4960888;28;20062;-75
2023/01/05 09:55:19;;;;;;;21.92;4.55;;;9.70;99.90;;;;;;4954728;28;20042;-74
2023/01/05 09:58:13;;;;;;;22.45;4.28;;;9.80;99.90;;;;;;4953094;28;20579;-74
2023/01/05 10:00:43;;;;;;;24.05;5.20;;;9.80;99.90;;;;;;4958370;28;20098;-75
2023/01/05 10:03:17;;;;;;;27.88;4.88;;;9.80;99.90;;;;;;4937120;28;20047;-75
2023/01/05 10:05:45;;;;;;;27.15;4.93;;;9.80;99.90;;;;;;4963699;28;20047;-75
2023/01/05 10:08:31;;;;;;;23.25;4.40;;;9.80;99.90;;;;;;4952577;28;20051;-75
2023/01/05 10:14:09;;;;;;;23.08;4.85;;;9.90;99.90;;;;;;4965592;28;20054;-74
2023/01/05 10:16:36;;;;;;;23.10;4.60;;;9.90;99.90;;;;;;4953148;28;20054;-75
2023/01/05 10:19:02;;;;;;;21.75;4.38;;;9.90;99.90;;;;;;4953643;28;20131;-76
2023/01/05 10:21:41;;;;;;;22.27;4.05;;;9.90;99.90;;;;;;4954984;28;20144;-75
2023/01/05 10:24:12;;;;;;;24.85;4.57;;;9.90;99.90;;;;;;4949519;28;20125;-75
2023/01/05 10:26:50;;;;;;;24.50;5.05;;;9.90;99.90;;;;;;4950729;28;20471;-74
2023/01/05 10:29:52;;;;;;;22.50;4.45;;;9.90;99.90;;;;;;4950851;28;20054;-77
2023/01/05 10:32:20;;;;;;;27.38;4.40;;;9.90;99.90;;;;;;4919055;28;20078;-75
2023/01/05 10:34:49;;;;;;;22.67;4.18;;;9.90;99.90;;;;;;4950614;28;20051;-74
2023/01/05 10:37:29;;;;;;;20.33;4.00;;;9.90;99.90;;;;;;4964732;28;20050;-75
2023/01/05 10:40:27;;;;;;;27.67;4.57;;;9.90;99.90;;;;;;4966158;28;20483;-76
2023/01/05 10:43:10;;;;;;;18.50;4.03;;;9.90;99.90;;;;;;4925178;28;20057;-75
2023/01/05 10:45:36;;;;;;;19.05;3.88;;;9.90;99.90;;;;;;4962194;28;20062;-75
2023/01/05 10:48:09;;;;;;;19.58;4.25;;;9.90;99.90;;;;;;4948303;28;20118;-74
2023/01/05 10:50:54;;;;;;;24.52;4.40;;;9.90;99.90;;;;;;4953576;28;20086;-75
2023/01/05 10:53:25;;;;;;;18.50;3.83;;;9.90;99.90;;;;;;4954927;28;20050;-75
2023/01/05 10:55:54;;;;;;;18.77;3.53;;;9.90;99.90;;;;;;4951114;28;20055;-75
2023/01/05 10:58:28;;;;;;;22.70;4.43;;;9.90;99.90;;;;;;4936555;28;20047;-75
2023/01/05 11:01:03;;;;;;;19.58;3.92;;;10.00;99.90;;;;;;4958125;28;20171;-75
2023/01/05 11:03:49;;;;;;;21.95;3.88;;;10.00;99.90;;;;;;4945459;28;20063;-74
2023/01/05 11:06:21;;;;;;;22.13;4.53;;;10.00;99.90;;;;;;4964975;28;20454;-75
2023/01/05 11:08:47;;;;;;;21.73;3.88;;;10.00;99.90;;;;;;4948001;28;20133;-75
2023/01/05 11:11:22;;;;;;;21.92;3.85;;;10.00;99.90;;;;;;4937165;28;20046;-75
2023/01/05 11:13:49;;;;;;;18.25;3.90;;;10.00;99.90;;;;;;4932847;28;20042;-75
2023/01/05 11:16:37;;;;;;;16.33;3.53;;;10.00;99.90;;;;;;4953053;28;20047;-75
2023/01/05 11:19:06;;;;;;;21.20;4.00;;;10.00;99.90;;;;;;4934959;28;20078;-76
2023/01/05 11:21:36;;;;;;;18.35;3.25;;;10.00;99.90;;;;;;4954128;28;20479;-75
2023/01/05 11:24:03;;;;;;;16.95;3.88;;;10.00;99.90;;;;;;4933674;28;20055;-74
2023/01/05 11:26:31;;;;;;;17.63;3.88;;;10.10;99.90;;;;;;4948785;28;20104;-76
2023/01/05 11:29:10;;;;;;;15.23;2.88;;;10.10;99.90;;;;;;4951381;28;20058;-76
2023/01/05 11:31:47;;;;;;;13.88;2.72;;;10.10;99.90;;;;;;4953444;28;20055;-74
2023/01/05 11:34:27;;;;;;;14.18;3.00;;;10.10;99.90;;;;;;4949483;28;20088;-74
2023/01/05 11:36:55;;;;;;;18.25;3.05;;;10.20;99.90;;;;;;4948632;28;20047;-76
2023/01/05 11:39:30;;;;;;;16.25;3.08;;;10.20;99.90;;;;;;4951380;28;20046;-75
2023/01/05 11:42:08;;;;;;;13.57;2.92;;;10.20;99.90;;;;;;4970968;28;20162;-75
2023/01/05 11:44:35;;;;;;;14.00;3.00;;;10.20;99.90;;;;;;4948836;29;20107;-75
2023/01/05 11:47:02;;;;;;;17.55;3.50;;;10.20;99.90;;;;;;4949840;29;20106;-75
2023/01/05 11:49:28;;;;;;;15.05;3.17;;;10.20;99.90;;;;;;4948662;29;20055;-75
2023/01/05 11:51:54;;;;;;;17.27;3.13;;;10.30;99.90;;;;;;4933712;29;20551;-76
2023/01/05 11:54:35;;;;;;;17.75;3.20;;;10.30;99.90;;;;;;4945693;29;20050;-75
2023/01/05 11:57:16;;;;;;;14.85;3.20;;;10.30;99.90;;;;;;4946869;29;20484;-77
2023/01/05 11:59:45;;;;;;;13.77;3.03;;;10.30;99.90;;;;;;4947164;28;20059;-77
2023/01/05 12:02:41;;;;;;;17.52;3.33;;;10.30;99.90;;;;;;4952002;29;20050;-76
2023/01/05 12:05:26;;;;;;;19.58;3.72;;;10.30;99.90;;;;;;4944805;29;20083;-76
2023/01/05 12:08:11;;;;;;;17.05;3.33;;;10.20;99.90;;;;;;4941873;29;20280;-75
2023/01/05 12:11:02;;;;;;;18.98;3.50;;;10.20;99.90;;;;;;4949022;29;20129;-76
2023/01/05 12:13:52;;;;;;;18.98;3.22;;;10.10;99.90;;;;;;4948872;29;20048;-76
2023/01/05 12:16:30;;;;;;;19.02;3.42;;;10.10;99.90;;;;;;4943965;29;20528;-76
2023/01/05 12:19:08;;;;;;;20.77;3.40;;;10.10;99.90;;;;;;4941045;29;20114;-75
2023/01/05 12:21:42;;;;;;;17.30;3.30;;;10.10;99.90;;;;;;4945210;29;20083;-75
2023/01/05 12:24:39;;;;;;;17.95;3.85;;;10.10;99.90;;;;;;4947047;29;20403;-75
2023/01/05 12:27:14;;;;;;;19.42;3.25;;;10.20;99.90;;;;;;4949850;29;20043;-76
2023/01/05 12:30:17;;;;;;;18.23;3.63;;;10.20;99.90;;;;;;4946894;29;20066;-74
2023/01/05 12:32:43;;;;;;;16.88;3.50;;;10.30;99.90;;;;;;4929105;29;20110;-75
2023/01/05 12:35:20;;;;;;;21.60;3.42;;;10.30;99.90;;;;;;4898480;28;20154;-75
2023/01/05 12:38:20;;;;;;;16.33;3.40;;;10.30;99.90;;;;;;4939355;29;20109;-75
2023/01/05 12:41:16;;;;;;;14.65;2.85;;;10.30;99.90;;;;;;4948100;29;20054;-75
2023/01/05 12:44:00;;;;;;;11.45;2.85;;;10.30;99.90;;;;;;4946961;29;20055;-76
2023/01/05 12:46:44;;;;;;;17.90;3.67;;;10.40;99.90;;;;;;4946493;29;20059;-76
2023/01/05 12:49:15;;;;;;;16.10;3.40;;;10.40;99.90;;;;;;4928449;29;20055;-76
2023/01/05 12:51:44;;;;;;;17.27;3.13;;;10.40;99.90;;;;;;4946798;29;20051;-75
2023/01/05 12:54:37;;;;;;;15.70;3.20;;;10.40;99.90;;;;;;4945192;29;20512;-75
2023/01/05 12:57:47;;;;;;;18.05;3.40;;;10.40;99.90;;;;;;4945392;29;20051;-75
2023/01/05 13:00:20;;;;;;;17.15;3.78;;;10.40;99.90;;;;;;4929422;29;20106;-75
2023/01/05 13:03:03;;;;;;;16.25;3.50;;;10.40;99.90;;;;;;4945217;29;20050;-76
2023/01/05 13:05:42;;;;;;;20.48;3.78;;;10.30;99.90;;;;;;4946754;29;20043;-74
2023/01/05 13:08:32;;;;;;;18.77;3.42;;;10.30;99.90;;;;;;4946640;29;20054;-76
2023/01/05 13:11:29;;;;;;;16.73;3.50;;;10.30;99.90;;;;;;4946538;28;20693;-75
2023/01/05 13:14:14;;;;;;;19.08;3.65;;;10.20;99.90;;;;;;4912686;29;20109;-76
2023/01/05 13:16:43;;;;;;;14.68;3.15;;;10.20;99.90;;;;;;4947301;29;20126;-76
2023/01/05 13:19:23;;;;;;;17.55;3.38;;;10.20;99.90;;;;;;4943410;29;20507;-76
2023/01/05 13:21:51;;;;;;;16.90;3.45;;;10.10;99.90;;;;;;4944552;29;20047;-75
2023/01/05 13:24:27;;;;;;;18.77;3.63;;;10.10;99.90;;;;;;4942254;29;20055;-75
2023/01/05 13:26:54;;;;;;;15.68;3.50;;;10.10;99.90;;;;;;4928003;29;20067;-75
2023/01/05 13:29:27;;;;;;;20.13;3.97;;;10.10;99.90;;;;;;4946021;29;20547;-76
2023/01/05 13:32:05;;;;;;;19.67;3.97;;;10.10;99.90;;;;;;4931484;29;20059;-75
2023/01/05 13:34:45;;;;;;;22.48;3.88;;;10.10;99.90;;;;;;4944677;29;20055;-75
2023/01/05 13:37:25;;;;;;;19.90;4.28;;;10.10;99.90;;;;;;4945620;29;20043;-75
2023/01/05 13:39:51;;;;;;;17.75;3.42;;;10.10;99.90;;;;;;4945536;29;20134;-76